sensor_id;sensor_type;location;lat;lon;timestamp;pressure;altitude;pressure_sealevel;temperature;humidity
81243;BME280;70716;50.074;14.496;2023-09-18T13:01:29;98259.44;;;27.48;40.97
81243;BME280;70716;50.074;14.496;2023-09-18T13:03:54;98261.69;;;27.53;40.74
81243;BME280;70716;50.074;14.496;2023-09-18T13:06:30;98261.53;;;27.60;41.35
81243;BME280;70716;50.074;14.496;2023-09-18T13:09:15;98254.81;;;27.70;40.57
81243;BME280;70716;50.074;14.496;2023-09-18T13:11:56;98250.44;;;27.82;40.11
81243;BME280;70716;50.074;14.496;2023-09-18T13:14:22;98241.06;;;27.88;39.90
81243;BME280;70716;50.074;14.496;2023-09-18T13:16:48;98235.78;;;28.03;39.99
81243;BME280;70716;50.074;14.496;2023-09-18T13:19:13;98242.75;;;28.11;40.28
81243;BME280;70716;50.074;14.496;2023-09-18T13:21:47;98240.72;;;28.12;40.16
81243;BME280;70716;50.074;14.496;2023-09-18T13:24:32;98232.22;;;28.03;40.65
81243;BME280;70716;50.074;14.496;2023-09-18T13:26:58;98228.63;;;28.02;40.96
81243;BME280;70716;50.074;14.496;2023-09-18T13:29:26;98227.72;;;28.05;40.58
81243;BME280;70716;50.074;14.496;2023-09-18T13:31:55;98221.13;;;27.99;40.38
81243;BME280;70716;50.074;14.496;2023-09-18T13:34:20;98212.50;;;27.93;40.32
81243;BME280;70716;50.074;14.496;2023-09-18T13:36:46;98226.59;;;27.90;40.73
81243;BME280;70716;50.074;14.496;2023-09-18T13:39:15;98220.00;;;27.84;41.90
81243;BME280;70716;50.074;14.496;2023-09-18T13:41:42;98224.91;;;27.80;41.52
81243;BME280;70716;50.074;14.496;2023-09-18T13:44:08;98225.69;;;27.80;40.36
81243;BME280;70716;50.074;14.496;2023-09-18T13:46:35;98228.84;;;27.82;40.80
81243;BME280;70716;50.074;14.496;2023-09-18T13:49:03;98221.56;;;27.85;41.37
81243;BME280;70716;50.074;14.496;2023-09-18T13:51:30;98216.19;;;27.90;41.39
81243;BME280;70716;50.074;14.496;2023-09-18T13:53:56;98220.44;;;27.95;40.56
81243;BME280;70716;50.074;14.496;2023-09-18T13:56:22;98221.22;;;27.95;41.39
81243;BME280;70716;50.074;14.496;2023-09-18T13:58:48;98215.28;;;27.93;41.23
81243;BME280;70716;50.074;14.496;2023-09-18T14:01:16;98213.38;;;27.90;41.11
81243;BME280;70716;50.074;14.496;2023-09-18T14:03:45;98208.91;;;27.93;41.43
81243;BME280;70716;50.074;14.496;2023-09-18T14:06:10;98216.06;;;27.94;40.22
81243;BME280;70716;50.074;14.496;2023-09-18T14:08:35;98215.63;;;27.95;40.47
81243;BME280;70716;50.074;14.496;2023-09-18T14:11:04;98204.53;;;28.05;40.66
81243;BME280;70716;50.074;14.496;2023-09-18T14:13:31;98201.97;;;28.10;41.62
81243;BME280;70716;50.074;14.496;2023-09-18T14:15:59;98203.53;;;28.11;41.18
81243;BME280;70716;50.074;14.496;2023-09-18T14:18:31;98207.22;;;28.21;41.30
81243;BME280;70716;50.074;14.496;2023-09-18T14:20:57;98201.88;;;28.26;41.08
81243;BME280;70716;50.074;14.496;2023-09-18T14:23:22;98197.03;;;28.27;41.34
81243;BME280;70716;50.074;14.496;2023-09-18T14:25:47;98204.22;;;28.28;41.25
81243;BME280;70716;50.074;14.496;2023-09-18T14:28:14;98203.63;;;28.20;41.52
81243;BME280;70716;50.074;14.496;2023-09-18T14:30:42;98196.69;;;28.12;41.16
81243;BME280;70716;50.074;14.496;2023-09-18T14:33:08;98197.03;;;28.02;41.13
81243;BME280;70716;50.074;14.496;2023-09-18T14:35:37;98193.44;;;27.88;41.47
81243;BME280;70716;50.074;14.496;2023-09-18T14:38:02;98203.31;;;27.80;41.99
81243;BME280;70716;50.074;14.496;2023-09-18T14:40:31;98193.00;;;27.77;41.50
81243;BME280;70716;50.074;14.496;2023-09-18T14:42:56;98201.84;;;27.76;42.54
81243;BME280;70716;50.074;14.496;2023-09-18T14:45:21;98192.81;;;27.72;41.83
81243;BME280;70716;50.074;14.496;2023-09-18T14:47:47;98191.22;;;27.71;41.95
81243;BME280;70716;50.074;14.496;2023-09-18T14:50:14;98195.72;;;27.68;41.14
81243;BME280;70716;50.074;14.496;2023-09-18T14:52:39;98189.88;;;27.63;41.61
81243;BME280;70716;50.074;14.496;2023-09-18T14:55:04;98195.59;;;27.59;41.92
81243;BME280;70716;50.074;14.496;2023-09-18T14:57:30;98194.53;;;27.53;42.63
81243;BME280;70716;50.074;14.496;2023-09-18T14:59:55;98194.75;;;27.46;42.25
81243;BME280;70716;50.074;14.496;2023-09-18T15:02:21;98192.16;;;27.39;42.44
81243;BME280;70716;50.074;14.496;2023-09-18T15:04:46;98197.50;;;27.33;42.54
81243;BME280;70716;50.074;14.496;2023-09-18T15:07:13;98194.81;;;27.29;42.50
81243;BME280;70716;50.074;14.496;2023-09-18T15:09:39;98195.06;;;27.35;43.43
81243;BME280;70716;50.074;14.496;2023-09-18T15:12:05;98191.59;;;27.44;41.53
81243;BME280;70716;50.074;14.496;2023-09-18T15:14:37;98192.72;;;27.46;43.33
81243;BME280;70716;50.074;14.496;2023-09-18T15:17:05;98184.78;;;27.45;42.10
81243;BME280;70716;50.074;14.496;2023-09-18T15:19:33;98185.34;;;27.40;41.84
81243;BME280;70716;50.074;14.496;2023-09-18T15:21:58;98186.31;;;27.33;42.23
81243;BME280;70716;50.074;14.496;2023-09-18T15:24:24;98181.81;;;27.23;43.26
81243;BME280;70716;50.074;14.496;2023-09-18T15:26:49;98174.13;;;27.14;43.13
81243;BME280;70716;50.074;14.496;2023-09-18T15:29:15;98172.19;;;27.11;43.25
81243;BME280;70716;50.074;14.496;2023-09-18T15:31:41;98172.50;;;27.01;43.50
81243;BME280;70716;50.074;14.496;2023-09-18T15:34:09;98176.25;;;26.94;43.86
81243;BME280;70716;50.074;14.496;2023-09-18T15:36:35;98173.22;;;26.88;44.06
81243;BME280;70716;50.074;14.496;2023-09-18T15:39:00;98180.13;;;26.84;44.73
81243;BME280;70716;50.074;14.496;2023-09-18T15:41:26;98177.63;;;26.73;44.63
81243;BME280;70716;50.074;14.496;2023-09-18T15:43:53;98183.56;;;26.59;45.37
81243;BME280;70716;50.074;14.496;2023-09-18T15:46:21;98179.44;;;26.51;45.70
81243;BME280;70716;50.074;14.496;2023-09-18T15:48:46;98192.88;;;26.40;45.81
81243;BME280;70716;50.074;14.496;2023-09-18T15:51:12;98180.72;;;26.30;46.76
81243;BME280;70716;50.074;14.496;2023-09-18T15:53:37;98175.75;;;26.21;46.92
81243;BME280;70716;50.074;14.496;2023-09-18T15:56:02;98178.97;;;26.20;46.97
81243;BME280;70716;50.074;14.496;2023-09-18T15:58:28;98171.13;;;26.15;46.71
81243;BME280;70716;50.074;14.496;2023-09-18T16:00:54;98172.44;;;26.26;46.22
81243;BME280;70716;50.074;14.496;2023-09-18T16:03:20;98177.66;;;26.24;46.38
81243;BME280;70716;50.074;14.496;2023-09-18T16:05:47;98172.78;;;26.28;46.51
81243;BME280;70716;50.074;14.496;2023-09-18T16:08:19;98169.41;;;26.37;46.21
81243;BME280;70716;50.074;14.496;2023-09-18T16:10:45;98164.50;;;26.41;46.11
81243;BME280;70716;50.074;14.496;2023-09-18T16:13:10;98162.94;;;26.40;45.90
81243;BME280;70716;50.074;14.496;2023-09-18T16:15:36;98162.94;;;26.40;46.21
81243;BME280;70716;50.074;14.496;2023-09-18T16:18:04;98166.25;;;26.35;45.90
81243;BME280;70716;50.074;14.496;2023-09-18T16:20:30;98160.34;;;26.33;46.36
81243;BME280;70716;50.074;14.496;2023-09-18T16:22:56;98157.97;;;26.31;46.46
81243;BME280;70716;50.074;14.496;2023-09-18T16:25:21;98160.81;;;26.28;46.50
81243;BME280;70716;50.074;14.496;2023-09-18T16:27:50;98152.19;;;26.22;46.61
81243;BME280;70716;50.074;14.496;2023-09-18T16:30:16;98148.78;;;26.15;47.07
81243;BME280;70716;50.074;14.496;2023-09-18T16:32:42;98144.94;;;26.09;47.55
81243;BME280;70716;50.074;14.496;2023-09-18T16:35:07;98133.97;;;26.02;48.11
81243;BME280;70716;50.074;14.496;2023-09-18T16:37:33;98132.50;;;25.97;48.99
81243;BME280;70716;50.074;14.496;2023-09-18T16:39:59;98141.50;;;25.88;48.45
81243;BME280;70716;50.074;14.496;2023-09-18T16:42:24;98129.00;;;25.77;48.39
81243;BME280;70716;50.074;14.496;2023-09-18T16:44:52;98137.81;;;25.75;48.62
81243;BME280;70716;50.074;14.496;2023-09-18T16:47:21;98143.91;;;25.70;48.92
81243;BME280;70716;50.074;14.496;2023-09-18T16:49:49;98144.41;;;25.65;49.40
81243;BME280;70716;50.074;14.496;2023-09-18T16:52:18;98150.84;;;25.62;49.55
81243;BME280;70716;50.074;14.496;2023-09-18T16:54:45;98155.19;;;25.63;50.08
81243;BME280;70716;50.074;14.496;2023-09-18T16:57:10;98157.00;;;25.53;51.04
81243;BME280;70716;50.074;14.496;2023-09-18T16:59:41;98170.53;;;25.19;53.25
81243;BME280;70716;50.074;14.496;2023-09-18T17:02:06;98176.28;;;24.68;56.96
81243;BME280;70716;50.074;14.496;2023-09-18T17:04:34;98178.06;;;24.35;58.96
81243;BME280;70716;50.074;14.496;2023-09-18T17:07:05;98173.06;;;24.00;60.20
81243;BME280;70716;50.074;14.496;2023-09-18T17:09:30;98180.50;;;23.56;61.99
81243;BME280;70716;50.074;14.496;2023-09-18T17:11:55;98195.91;;;23.00;64.11
81243;BME280;70716;50.074;14.496;2023-09-18T17:14:21;98199.72;;;22.79;65.07
81243;BME280;70716;50.074;14.496;2023-09-18T17:16:46;98222.09;;;22.58;66.00
81243;BME280;70716;50.074;14.496;2023-09-18T17:19:12;98241.13;;;22.59;65.84
81243;BME280;70716;50.074;14.496;2023-09-18T17:21:38;98240.34;;;22.59;65.96
81243;BME280;70716;50.074;14.496;2023-09-18T17:24:04;98241.94;;;22.56;65.79
81243;BME280;70716;50.074;14.496;2023-09-18T17:26:30;98242.41;;;22.51;65.96
81243;BME280;70716;50.074;14.496;2023-09-18T17:28:55;98258.28;;;22.51;65.81
81243;BME280;70716;50.074;14.496;2023-09-18T17:31:21;98269.13;;;22.34;66.13
81243;BME280;70716;50.074;14.496;2023-09-18T17:33:46;98283.03;;;22.31;62.89
81243;BME280;70716;50.074;14.496;2023-09-18T17:36:13;98288.09;;;22.43;59.84
81243;BME280;70716;50.074;14.496;2023-09-18T17:38:38;98321.25;;;22.61;60.52
81243;BME280;70716;50.074;14.496;2023-09-18T17:41:04;98324.00;;;22.64;60.84
81243;BME280;70716;50.074;14.496;2023-09-18T17:43:30;98318.09;;;22.59;60.19
81243;BME280;70716;50.074;14.496;2023-09-18T17:45:57;98329.28;;;22.52;59.82
81243;BME280;70716;50.074;14.496;2023-09-18T17:48:22;98330.47;;;22.51;59.71
81243;BME280;70716;50.074;14.496;2023-09-18T17:50:51;98343.56;;;22.50;59.69
81243;BME280;70716;50.074;14.496;2023-09-18T17:53:17;98330.16;;;22.42;59.75
81243;BME280;70716;50.074;14.496;2023-09-18T17:55:48;98346.41;;;22.43;60.21
81243;BME280;70716;50.074;14.496;2023-09-18T17:58:14;98349.16;;;22.47;60.32
81243;BME280;70716;50.074;14.496;2023-09-18T18:00:40;98354.28;;;22.48;60.97
81243;BME280;70716;50.074;14.496;2023-09-18T18:03:06;98347.59;;;22.42;60.78
81243;BME280;70716;50.074;14.496;2023-09-18T18:05:32;98355.19;;;22.34;61.04
81243;BME280;70716;50.074;14.496;2023-09-18T18:07:57;98359.59;;;22.25;61.48
81243;BME280;70716;50.074;14.496;2023-09-18T18:10:23;98361.63;;;22.17;61.96
81243;BME280;70716;50.074;14.496;2023-09-18T18:12:48;98368.81;;;22.07;62.06
81243;BME280;70716;50.074;14.496;2023-09-18T18:15:14;98366.44;;;21.99;61.91
81243;BME280;70716;50.074;14.496;2023-09-18T18:17:41;98364.59;;;21.74;62.70
81243;BME280;70716;50.074;14.496;2023-09-18T18:20:08;98366.97;;;21.72;62.56
81243;BME280;70716;50.074;14.496;2023-09-18T18:22:34;98372.50;;;21.72;63.01
81243;BME280;70716;50.074;14.496;2023-09-18T18:24:59;98383.63;;;21.62;63.03
81243;BME280;70716;50.074;14.496;2023-09-18T18:27:25;98387.22;;;21.52;63.40
81243;BME280;70716;50.074;14.496;2023-09-18T18:29:50;98390.00;;;21.45;63.30
81243;BME280;70716;50.074;14.496;2023-09-18T18:32:16;98394.81;;;21.37;63.51
81243;BME280;70716;50.074;14.496;2023-09-18T18:34:44;98397.19;;;21.35;63.82
81243;BME280;70716;50.074;14.496;2023-09-18T18:37:12;98405.91;;;21.26;64.20
81243;BME280;70716;50.074;14.496;2023-09-18T18:39:38;98409.88;;;21.29;64.38
81243;BME280;70716;50.074;14.496;2023-09-18T18:42:04;98415.81;;;21.27;64.41
81243;BME280;70716;50.074;14.496;2023-09-18T18:44:30;98416.59;;;21.28;64.52
81243;BME280;70716;50.074;14.496;2023-09-18T18:46:58;98417.38;;;21.28;64.50
81243;BME280;70716;50.074;14.496;2023-09-18T18:49:26;98428.06;;;21.26;64.15
81243;BME280;70716;50.074;14.496;2023-09-18T18:51:51;98432.41;;;21.06;64.75
81243;BME280;70716;50.074;14.496;2023-09-18T18:54:17;98440.72;;;20.95;64.80
81243;BME280;70716;50.074;14.496;2023-09-18T18:56:45;98441.50;;;20.92;64.92
81243;BME280;70716;50.074;14.496;2023-09-18T18:59:11;98434.78;;;20.79;66.37
81243;BME280;70716;50.074;14.496;2023-09-18T19:01:36;98443.88;;;20.69;68.34
81243;BME280;70716;50.074;14.496;2023-09-18T19:04:02;98449.00;;;20.60;71.22
81243;BME280;70716;50.074;14.496;2023-09-18T19:06:27;98438.19;;;20.30;71.62
81243;BME280;70716;50.074;14.496;2023-09-18T19:08:54;98444.44;;;20.05;73.49
81243;BME280;70716;50.074;14.496;2023-09-18T19:11:24;98444.38;;;19.88;74.85
81243;BME280;70716;50.074;14.496;2023-09-18T19:13:51;98429.63;;;19.59;74.66
81243;BME280;70716;50.074;14.496;2023-09-18T19:16:17;98436.72;;;19.56;75.83
81243;BME280;70716;50.074;14.496;2023-09-18T19:18:42;98433.81;;;19.42;77.43
81243;BME280;70716;50.074;14.496;2023-09-18T19:21:09;98433.31;;;19.26;77.62
81243;BME280;70716;50.074;14.496;2023-09-18T19:23:36;98439.13;;;19.13;79.25
81243;BME280;70716;50.074;14.496;2023-09-18T19:26:03;98437.47;;;19.02;79.76
81243;BME280;70716;50.074;14.496;2023-09-18T19:28:34;98433.84;;;18.91;80.75
81243;BME280;70716;50.074;14.496;2023-09-18T19:31:01;98430.53;;;18.74;80.65
81243;BME280;70716;50.074;14.496;2023-09-18T19:33:28;98423.41;;;18.73;81.04
81243;BME280;70716;50.074;14.496;2023-09-18T19:35:53;98425.34;;;18.69;81.05
81243;BME280;70716;50.074;14.496;2023-09-18T19:38:22;98412.56;;;18.54;82.64
81243;BME280;70716;50.074;14.496;2023-09-18T19:40:50;98420.94;;;18.61;81.54
81243;BME280;70716;50.074;14.496;2023-09-18T19:43:16;98419.00;;;18.65;81.67
81243;BME280;70716;50.074;14.496;2023-09-18T19:45:45;98447.03;;;18.67;81.44
81243;BME280;70716;50.074;14.496;2023-09-18T19:48:10;98445.81;;;18.65;84.23
81243;BME280;70716;50.074;14.496;2023-09-18T19:50:36;98446.78;;;18.46;84.06
81243;BME280;70716;50.074;14.496;2023-09-18T19:53:02;98457.03;;;18.49;83.58
81243;BME280;70716;50.074;14.496;2023-09-18T19:55:29;98454.66;;;18.44;83.86
81243;BME280;70716;50.074;14.496;2023-09-18T19:57:55;98461.78;;;18.48;83.96
81243;BME280;70716;50.074;14.496;2023-09-18T20:00:22;98462.56;;;18.49;84.68
81243;BME280;70716;50.074;14.496;2023-09-18T20:02:48;98462.44;;;18.35;84.58
81243;BME280;70716;50.074;14.496;2023-09-18T20:05:19;98461.56;;;18.27;84.64
81243;BME280;70716;50.074;14.496;2023-09-18T20:07:45;98455.25;;;18.27;85.27
81243;BME280;70716;50.074;14.496;2023-09-18T20:10:13;98455.91;;;18.17;83.80
81243;BME280;70716;50.074;14.496;2023-09-18T20:12:50;98455.53;;;18.18;83.50
81243;BME280;70716;50.074;14.496;2023-09-18T20:15:17;98442.91;;;18.17;83.83
81243;BME280;70716;50.074;14.496;2023-09-18T20:17:44;98435.75;;;18.12;84.38
81243;BME280;70716;50.074;14.496;2023-09-18T20:20:13;98434.59;;;18.13;83.98
81243;BME280;70716;50.074;14.496;2023-09-18T20:22:40;98427.97;;;18.18;83.85
81243;BME280;70716;50.074;14.496;2023-09-18T20:25:06;98418.13;;;18.21;83.52
81243;BME280;70716;50.074;14.496;2023-09-18T20:27:36;98418.47;;;18.15;83.64
81243;BME280;70716;50.074;14.496;2023-09-18T20:30:14;98423.66;;;18.21;82.86
81243;BME280;70716;50.074;14.496;2023-09-18T20:32:40;98428.78;;;18.22;83.17
81243;BME280;70716;50.074;14.496;2023-09-18T20:35:06;98414.59;;;18.20;82.92
81243;BME280;70716;50.074;14.496;2023-09-18T20:37:32;98416.09;;;18.14;82.58
81243;BME280;70716;50.074;14.496;2023-09-18T20:39:58;98426.38;;;18.17;83.53
81243;BME280;70716;50.074;14.496;2023-09-18T20:42:27;98431.84;;;18.13;83.87
81243;BME280;70716;50.074;14.496;2023-09-18T20:44:53;98423.47;;;18.06;84.00
81243;BME280;70716;50.074;14.496;2023-09-18T20:47:20;98423.56;;;18.13;83.85
81243;BME280;70716;50.074;14.496;2023-09-18T20:49:51;98420.78;;;18.10;84.40
81243;BME280;70716;50.074;14.496;2023-09-18T20:52:17;98405.41;;;18.09;83.89
81243;BME280;70716;50.074;14.496;2023-09-18T20:54:42;98412.44;;;18.06;84.44
81243;BME280;70716;50.074;14.496;2023-09-18T20:57:09;98410.81;;;18.02;84.47
81243;BME280;70716;50.074;14.496;2023-09-18T20:59:35;98411.56;;;17.99;84.01
81243;BME280;70716;50.074;14.496;2023-09-18T21:02:00;98418.63;;;17.96;84.22
81243;BME280;70716;50.074;14.496;2023-09-18T21:04:25;98417.78;;;17.92;84.49
81243;BME280;70716;50.074;14.496;2023-09-18T21:06:51;98422.50;;;17.92;84.40
81243;BME280;70716;50.074;14.496;2023-09-18T21:09:16;98417.03;;;17.95;83.55
81243;BME280;70716;50.074;14.496;2023-09-18T21:11:41;98431.63;;;17.96;83.68
81243;BME280;70716;50.074;14.496;2023-09-18T21:14:09;98428.06;;;17.95;84.09
81243;BME280;70716;50.074;14.496;2023-09-18T21:16:37;98437.06;;;17.89;84.43
81243;BME280;70716;50.074;14.496;2023-09-18T21:19:04;98430.78;;;17.92;83.47
81243;BME280;70716;50.074;14.496;2023-09-18T21:21:30;98433.59;;;17.95;83.56
81243;BME280;70716;50.074;14.496;2023-09-18T21:23:56;98437.59;;;18.01;83.26
81243;BME280;70716;50.074;14.496;2023-09-18T21:26:21;98433.25;;;18.00;83.68
81243;BME280;70716;50.074;14.496;2023-09-18T21:28:46;98431.66;;;17.99;84.15
81243;BME280;70716;50.074;14.496;2023-09-18T21:31:15;98418.69;;;18.00;84.55
81243;BME280;70716;50.074;14.496;2023-09-18T21:33:46;98424.91;;;17.93;84.83
81243;BME280;70716;50.074;14.496;2023-09-18T21:36:15;98421.81;;;17.98;84.35
81243;BME280;70716;50.074;14.496;2023-09-18T21:38:42;98419.38;;;17.93;84.78
81243;BME280;70716;50.074;14.496;2023-09-18T21:41:08;98419.84;;;17.99;84.23
81243;BME280;70716;50.074;14.496;2023-09-18T21:43:34;98417.13;;;18.02;84.02
81243;BME280;70716;50.074;14.496;2023-09-18T21:46:01;98414.47;;;18.09;83.71
81243;BME280;70716;50.074;14.496;2023-09-18T21:48:26;98420.31;;;18.04;84.20
81243;BME280;70716;50.074;14.496;2023-09-18T21:50:51;98414.03;;;18.07;83.98
81243;BME280;70716;50.074;14.496;2023-09-18T21:53:17;98410.06;;;18.05;84.75
81243;BME280;70716;50.074;14.496;2023-09-18T21:55:48;98416.78;;;18.07;84.50
81243;BME280;70716;50.074;14.496;2023-09-18T21:58:15;98414.00;;;18.04;84.44
81243;BME280;70716;50.074;14.496;2023-09-18T22:00:40;98413.13;;;17.96;84.64
81243;BME280;70716;50.074;14.496;2023-09-18T22:03:09;98413.91;;;17.97;84.31
81243;BME280;70716;50.074;14.496;2023-09-18T22:05:39;98409.94;;;17.91;84.70
81243;BME280;70716;50.074;14.496;2023-09-18T22:08:06;98412.63;;;17.87;84.62
81243;BME280;70716;50.074;14.496;2023-09-18T22:10:32;98419.28;;;17.83;85.22
81243;BME280;70716;50.074;14.496;2023-09-18T22:12:59;98413.34;;;17.80;85.17
81243;BME280;70716;50.074;14.496;2023-09-18T22:15:26;98416.84;;;17.77;85.69
81243;BME280;70716;50.074;14.496;2023-09-18T22:17:52;98421.88;;;17.72;85.93
81243;BME280;70716;50.074;14.496;2023-09-18T22:20:17;98419.13;;;17.72;85.79
81243;BME280;70716;50.074;14.496;2023-09-18T22:22:46;98414.38;;;17.69;85.61
81243;BME280;70716;50.074;14.496;2023-09-18T22:25:12;98425.69;;;17.64;85.63
81243;BME280;70716;50.074;14.496;2023-09-18T22:27:38;98417.38;;;17.60;85.83
81243;BME280;70716;50.074;14.496;2023-09-18T22:30:06;98413.50;;;17.65;85.53
81243;BME280;70716;50.074;14.496;2023-09-18T22:32:35;98406.47;;;17.67;84.87
81243;BME280;70716;50.074;14.496;2023-09-18T22:35:04;98413.19;;;17.70;85.06
81243;BME280;70716;50.074;14.496;2023-09-18T22:37:31;98402.94;;;17.67;85.02
81243;BME280;70716;50.074;14.496;2023-09-18T22:54:46;98408.44;;;17.40;86.13
81243;BME280;70716;50.074;14.496;2023-09-18T22:57:13;98409.97;;;17.38;86.27
81243;BME280;70716;50.074;14.496;2023-09-18T22:59:40;98397.31;;;17.33;86.06
81243;BME280;70716;50.074;14.496;2023-09-18T23:02:08;98395.34;;;17.34;86.28
81243;BME280;70716;50.074;14.496;2023-09-18T23:04:35;98396.56;;;17.36;86.21
81243;BME280;70716;50.074;14.496;2023-09-18T23:07:05;98390.97;;;17.29;86.43
81243;BME280;70716;50.074;14.496;2023-09-18T23:09:31;98393.22;;;17.20;86.62
81243;BME280;70716;50.074;14.496;2023-09-18T23:11:59;98391.13;;;17.13;87.26
81243;BME280;70716;50.074;14.496;2023-09-18T23:14:25;98393.84;;;17.10;87.21
81243;BME280;70716;50.074;14.496;2023-09-18T23:17:05;98394.56;;;17.07;87.19
81243;BME280;70716;50.074;14.496;2023-09-18T23:19:34;98398.38;;;16.99;87.60
81243;BME280;70716;50.074;14.496;2023-09-18T23:22:01;98399.16;;;16.99;87.35
81243;BME280;70716;50.074;14.496;2023-09-18T23:24:27;98404.56;;;16.92;87.39
81243;BME280;70716;50.074;14.496;2023-09-18T23:26:52;98405.19;;;16.82;87.81
81243;BME280;70716;50.074;14.496;2023-09-18T23:29:20;98409.81;;;16.78;87.42
81243;BME280;70716;50.074;14.496;2023-09-18T23:31:46;98401.16;;;16.76;87.54
81243;BME280;70716;50.074;14.496;2023-09-18T23:34:11;98395.19;;;16.70;87.72
81243;BME280;70716;50.074;14.496;2023-09-18T23:36:37;98389.19;;;16.65;88.24
81243;BME280;70716;50.074;14.496;2023-09-18T23:39:07;98395.81;;;16.64;87.65
81243;BME280;70716;50.074;14.496;2023-09-18T23:41:33;98400.91;;;16.62;87.46
81243;BME280;70716;50.074;14.496;2023-09-18T23:43:59;98403.28;;;16.63;87.67
81243;BME280;70716;50.074;14.496;2023-09-18T23:46:25;98397.00;;;16.63;87.82
81243;BME280;70716;50.074;14.496;2023-09-18T23:48:51;98395.34;;;16.58;87.07
81243;BME280;70716;50.074;14.496;2023-09-18T23:51:17;98397.59;;;16.52;87.31
81243;BME280;70716;50.074;14.496;2023-09-18T23:53:42;98391.53;;;16.43;88.19
81243;BME280;70716;50.074;14.496;2023-09-18T23:56:08;98392.63;;;16.39;88.14
81243;BME280;70716;50.074;14.496;2023-09-18T23:58:38;98403.63;;;16.39;88.36
